Trousdale, Kansas
Current Conditions -  °F | °C
As of 11:35 PM on Thursday 30 Oct 2014 (Local Time) from KPTT Reporting Station
Clear Clear  
Wind Chill: 52°   Ceiling: Unl
Heat Index: 52°   Visibility: 10mi
Dew Point: 32°   Wind: 14mph
Humidity: 47%   Direction: 20°NNE
Pressure: 30.32"   Gusts: NA
Location:  37.5596°N, 99.1586°W
Report Text: KPTT 310435Z AUTO 02012KT 10SM CLR 11/00 A3032 RMK AO2
Loading
Personal Weather Stations






























Interactive Weather Map
Tropical Storm Tracking
New forecast layout! Learn more

10-Day Weather Forecast

Advertisements
Track Severe Weather on mobile